createdAt,value
2022-09-18T00:00:39.105Z,10.40
2022-09-18T00:03:07.314Z,10.40
2022-09-18T00:05:37.275Z,10.40
2022-09-18T00:08:05.429Z,10.40
2022-09-18T00:10:33.667Z,10.40
2022-09-18T00:13:01.982Z,10.30
2022-09-18T00:15:30.180Z,10.20
2022-09-18T00:17:59.695Z,10.30
2022-09-18T00:20:28.107Z,10.30
2022-09-18T00:22:56.281Z,10.30
2022-09-18T00:25:24.446Z,10.30
2022-09-18T00:27:52.528Z,10.30
2022-09-18T00:30:20.702Z,10.20
2022-09-18T00:32:48.788Z,10.20
2022-09-18T00:35:18.520Z,10.30
2022-09-18T00:37:46.753Z,10.20
2022-09-18T00:40:15.677Z,10.20
2022-09-18T00:42:43.877Z,10.20
2022-09-18T00:45:12.583Z,10.20
2022-09-18T00:47:43.133Z,10.10
2022-09-18T00:50:12.621Z,10.10
2022-09-18T00:52:57.845Z,10.20
2022-09-18T00:55:28.191Z,10.20
2022-09-18T00:57:57.551Z,10.10
2022-09-18T01:00:26.220Z,10.10
2022-09-18T01:02:54.418Z,10.10
2022-09-18T01:05:26.659Z,10.10
2022-09-18T01:08:03.062Z,10.10
2022-09-18T01:10:43.872Z,10.00
2022-09-18T01:13:14.739Z,10.00
2022-09-18T01:15:46.732Z,10.00
2022-09-18T01:18:18.348Z,10.00
2022-09-18T01:20:59.265Z,10.00
2022-09-18T01:23:59.314Z,10.00
2022-09-18T01:26:37.590Z,10.00
2022-09-18T01:29:08.999Z,10.00
2022-09-18T01:31:42.772Z,9.90
2022-09-18T01:34:13.545Z,9.90
2022-09-18T01:36:42.156Z,9.90
2022-09-18T01:39:12.733Z,9.90
2022-09-18T01:41:41.379Z,9.90
2022-09-18T01:44:13.262Z,9.80
2022-09-18T01:46:41.958Z,9.80
2022-09-18T01:49:11.232Z,9.80
2022-09-18T01:51:42.313Z,9.80
2022-09-18T01:54:14.421Z,9.70
2022-09-18T01:56:45.043Z,9.80
2022-09-18T01:59:16.129Z,9.70
2022-09-18T02:01:44.748Z,9.70
2022-09-18T02:04:14.514Z,9.70
2022-09-18T02:06:44.752Z,9.70
2022-09-18T02:09:12.891Z,9.70
2022-09-18T02:11:42.535Z,9.60
2022-09-18T02:14:14.643Z,9.60
2022-09-18T02:16:44.302Z,9.70
2022-09-18T02:19:15.061Z,9.70
2022-09-18T02:21:43.156Z,9.70
2022-09-18T02:24:12.147Z,9.70
2022-09-18T02:26:41.024Z,9.70
2022-09-18T02:29:10.116Z,9.70
2022-09-18T02:31:39.903Z,9.60
2022-09-18T02:34:09.049Z,9.60
2022-09-18T02:36:48.731Z,9.60
2022-09-18T02:39:24.956Z,9.50
2022-09-18T02:41:56.514Z,9.40
2022-09-18T02:44:26.582Z,9.40
2022-09-18T02:47:00.984Z,9.40
2022-09-18T02:49:36.723Z,9.40
2022-09-18T02:52:06.239Z,9.40
2022-09-18T02:54:38.201Z,9.40
2022-09-18T02:57:08.307Z,9.30
2022-09-18T02:59:40.512Z,9.30
2022-09-18T03:02:10.101Z,9.30
2022-09-18T03:04:40.858Z,9.20
2022-09-18T03:07:09.206Z,9.20
2022-09-18T03:09:38.123Z,9.20
2022-09-18T03:12:06.410Z,9.20
2022-09-18T03:14:34.494Z,9.10
2022-09-18T03:17:02.621Z,9.10
2022-09-18T03:19:32.146Z,9.00
2022-09-18T03:22:00.491Z,9.00
2022-09-18T03:24:28.788Z,9.00
2022-09-18T03:26:57.562Z,9.00
2022-09-18T03:29:25.711Z,8.90
2022-09-18T03:31:53.866Z,8.90
2022-09-18T03:34:22.019Z,8.90
2022-09-18T03:36:51.547Z,8.80
2022-09-18T03:39:20.476Z,8.70
2022-09-18T03:41:48.942Z,8.70
2022-09-18T03:44:17.024Z,8.60
2022-09-18T03:46:45.465Z,8.70
2022-09-18T03:49:13.780Z,8.60
2022-09-18T03:51:41.912Z,8.60
2022-09-18T03:54:11.373Z,8.60
2022-09-18T03:56:39.553Z,8.60
2022-09-18T03:59:08.005Z,8.60
2022-09-18T04:01:36.125Z,8.50
2022-09-18T04:04:04.457Z,8.50
2022-09-18T04:06:32.900Z,8.40
2022-09-18T04:09:01.333Z,8.50
2022-09-18T04:11:30.887Z,8.40
2022-09-18T04:13:59.021Z,8.40
2022-09-18T04:16:27.214Z,8.40
2022-09-18T04:18:55.373Z,8.50
2022-09-18T04:21:23.975Z,8.30
2022-09-18T04:23:52.065Z,8.40
2022-09-18T04:26:20.198Z,8.40
2022-09-18T04:28:49.765Z,8.40
2022-09-18T04:31:18.012Z,8.40
2022-09-18T04:33:46.411Z,8.40
2022-09-18T04:36:14.862Z,8.40
2022-09-18T04:38:43.015Z,8.40
2022-09-18T04:41:11.105Z,8.40
2022-09-18T04:43:39.494Z,8.40
2022-09-18T04:46:09.722Z,8.30
2022-09-18T04:48:37.884Z,8.30
2022-09-18T04:51:06.175Z,8.30
2022-09-18T04:53:38.066Z,8.30
2022-09-18T04:56:06.475Z,8.30
2022-09-18T04:58:35.110Z,8.30
2022-09-18T05:01:03.405Z,8.30
2022-09-18T05:03:33.124Z,8.40
2022-09-18T05:06:01.363Z,8.40
2022-09-18T05:08:30.133Z,8.30
2022-09-18T05:10:59.446Z,8.40
2022-09-18T05:13:27.556Z,8.40
2022-09-18T05:15:56.400Z,8.40
2022-09-18T05:18:24.646Z,8.40
2022-09-18T05:20:55.192Z,8.40
2022-09-18T05:23:23.303Z,8.40
2022-09-18T05:25:51.610Z,8.50
2022-09-18T05:28:19.990Z,8.50
2022-09-18T05:30:48.224Z,8.50
2022-09-18T05:33:16.412Z,8.50
2022-09-18T05:35:44.795Z,8.50
2022-09-18T05:38:14.356Z,8.50
2022-09-18T05:40:42.596Z,8.60
2022-09-18T05:43:10.820Z,8.50
2022-09-18T05:45:39.237Z,8.60
2022-09-18T05:48:07.544Z,8.60
2022-09-18T05:50:36.544Z,8.60
2022-09-18T05:53:05.553Z,8.60
2022-09-18T05:55:35.476Z,8.60
2022-09-18T05:58:04.439Z,8.60
2022-09-18T06:00:33.408Z,8.60
2022-09-18T06:03:02.419Z,8.70
2022-09-18T06:05:31.996Z,8.70
2022-09-18T06:08:00.355Z,8.70
2022-09-18T06:10:28.744Z,8.70
2022-09-18T06:13:02.931Z,8.70
2022-09-18T06:15:31.164Z,8.70
2022-09-18T06:17:59.294Z,8.70
2022-09-18T06:20:27.614Z,8.70
2022-09-18T06:22:55.945Z,8.80
2022-09-18T06:25:24.185Z,8.70
2022-09-18T06:27:58.711Z,8.70
2022-09-18T06:30:28.624Z,8.80
2022-09-18T06:32:57.507Z,8.80
2022-09-18T06:35:25.813Z,8.80
2022-09-18T06:37:53.897Z,8.90
2022-09-18T06:40:22.237Z,8.90
2022-09-18T06:42:50.380Z,8.90
2022-09-18T06:45:18.562Z,9.00
2022-09-18T06:47:48.200Z,9.00
2022-09-18T06:50:16.396Z,9.10
2022-09-18T06:52:44.674Z,9.10
2022-09-18T06:55:12.970Z,9.10
2022-09-18T06:57:41.268Z,9.30
2022-09-18T07:00:11.088Z,9.30
2022-09-18T07:02:39.405Z,9.30
2022-09-18T07:05:09.495Z,9.30
2022-09-18T07:07:37.634Z,9.40
2022-09-18T07:10:09.159Z,9.40
2022-09-18T07:12:37.551Z,9.40
2022-09-18T07:15:06.733Z,9.50
2022-09-18T07:17:35.005Z,9.50
2022-09-18T07:20:03.489Z,9.50
2022-09-18T07:22:32.996Z,9.60
2022-09-18T07:25:01.433Z,9.60
2022-09-18T07:27:29.942Z,9.60
2022-09-18T07:29:58.355Z,9.70
2022-09-18T07:32:26.565Z,9.80
2022-09-18T07:34:54.964Z,9.80
2022-09-18T07:37:23.041Z,9.80
2022-09-18T07:39:52.704Z,10.00
2022-09-18T07:42:20.899Z,10.10
2022-09-18T07:44:49.123Z,10.10
2022-09-18T07:47:17.221Z,10.20
2022-09-18T07:49:45.386Z,10.30
2022-09-18T07:52:13.698Z,10.20
2022-09-18T07:54:41.810Z,10.30
2022-09-18T07:57:11.387Z,10.20
2022-09-18T07:59:39.697Z,10.10
2022-09-18T08:02:08.392Z,10.20
2022-09-18T08:04:36.591Z,10.10
2022-09-18T08:07:04.763Z,10.10
2022-09-18T08:09:32.910Z,10.10
2022-09-18T08:12:01.060Z,10.20
2022-09-18T08:14:30.558Z,10.10
2022-09-18T08:16:58.693Z,10.30
2022-09-18T08:19:26.845Z,10.30
2022-09-18T08:21:54.972Z,10.40
2022-09-18T08:24:23.131Z,10.40
2022-09-18T08:26:51.288Z,10.50
2022-09-18T08:29:19.999Z,10.50
2022-09-18T08:31:49.696Z,10.60
2022-09-18T08:34:17.929Z,10.50
2022-09-18T08:36:46.255Z,10.40
2022-09-18T08:39:14.459Z,10.40
2022-09-18T08:41:52.371Z,10.40
2022-09-18T08:44:24.575Z,10.50
2022-09-18T08:46:57.022Z,10.60
2022-09-18T08:49:27.716Z,10.70
2022-09-18T08:51:59.332Z,10.80
2022-09-18T08:54:34.671Z,10.70
2022-09-18T08:57:03.431Z,10.80
2022-09-18T08:59:36.108Z,10.90
2022-09-18T09:02:25.449Z,10.80
2022-09-18T09:04:54.543Z,10.80
2022-09-18T09:07:31.872Z,10.80
2022-09-18T09:10:27.762Z,10.80
2022-09-18T09:13:00.099Z,10.80
2022-09-18T09:15:35.493Z,10.80
2022-09-18T09:18:15.261Z,10.90
2022-09-18T09:20:50.816Z,11.10
2022-09-18T09:23:22.018Z,11.10
2022-09-18T09:25:55.701Z,11.30
2022-09-18T09:28:26.370Z,11.40
2022-09-18T09:30:56.518Z,11.30
2022-09-18T09:33:27.987Z,11.30
2022-09-18T09:35:56.603Z,11.50
2022-09-18T09:38:35.220Z,11.50
2022-09-18T09:41:07.659Z,11.50
2022-09-18T09:43:38.450Z,11.60
2022-09-18T09:46:10.455Z,11.60
2022-09-18T09:48:42.783Z,11.60
2022-09-18T09:51:12.868Z,11.70
2022-09-18T09:53:41.333Z,11.60
2022-09-18T09:56:13.377Z,11.60
2022-09-18T09:58:46.300Z,11.60
2022-09-18T10:01:16.742Z,11.60
2022-09-18T10:03:58.360Z,11.50
2022-09-18T10:06:42.214Z,11.50
2022-09-18T10:09:15.351Z,11.30
2022-09-18T10:11:44.185Z,11.00
2022-09-18T10:14:13.931Z,10.90
2022-09-18T10:16:43.567Z,10.90
2022-09-18T10:19:15.010Z,10.90
2022-09-18T10:21:43.414Z,10.80
2022-09-18T10:24:18.645Z,10.90
2022-09-18T10:26:47.959Z,10.90
2022-09-18T10:29:16.374Z,10.80
2022-09-18T10:31:48.141Z,10.80
2022-09-18T10:34:33.833Z,10.70
2022-09-18T10:37:02.074Z,10.90
2022-09-18T10:39:31.824Z,10.90
2022-09-18T10:42:00.331Z,10.90
2022-09-18T10:44:29.122Z,11.00
2022-09-18T10:47:03.934Z,11.00
2022-09-18T10:49:36.174Z,11.30
2022-09-18T10:52:41.625Z,11.40
2022-09-18T10:55:15.381Z,11.40
2022-09-18T10:57:44.870Z,11.50
2022-09-18T11:00:35.157Z,11.60
2022-09-18T11:03:07.197Z,11.70
2022-09-18T11:05:37.396Z,11.70
2022-09-18T11:08:07.731Z,11.70
2022-09-18T11:10:37.058Z,11.60
2022-09-18T11:13:05.187Z,11.50
2022-09-18T11:15:34.266Z,11.40
2022-09-18T11:18:03.464Z,11.70
2022-09-18T11:20:32.649Z,12.10
2022-09-18T11:26:20.559Z,12.20
2022-09-18T11:29:01.032Z,12.70
2022-09-18T11:31:41.558Z,12.90
2022-09-18T11:34:20.351Z,13.10
2022-09-18T11:36:49.574Z,12.80
2022-09-18T11:39:24.670Z,13.00
2022-09-18T11:41:54.400Z,13.20
2022-09-18T11:44:25.568Z,13.10
2022-09-18T11:47:06.368Z,12.90
2022-09-18T11:49:36.144Z,12.50
2022-09-18T11:52:05.907Z,12.50
2022-09-18T11:54:37.733Z,12.10
2022-09-18T11:57:15.005Z,12.20
2022-09-18T11:59:44.183Z,12.00
2022-09-18T12:02:24.119Z,11.80
2022-09-18T12:04:54.479Z,11.60
2022-09-18T12:07:40.225Z,11.50
2022-09-18T12:10:15.014Z,11.50
2022-09-18T12:12:46.301Z,11.70
2022-09-18T12:15:16.822Z,11.60
2022-09-18T12:17:48.673Z,11.60
2022-09-18T12:20:21.839Z,11.50
2022-09-18T12:22:53.302Z,11.50
2022-09-18T12:25:23.605Z,11.60
2022-09-18T12:27:56.528Z,11.70
2022-09-18T12:30:28.204Z,11.50
2022-09-18T12:33:09.291Z,11.50
2022-09-18T12:35:54.666Z,11.60
2022-09-18T12:38:42.454Z,11.60
2022-09-18T12:41:24.901Z,11.60
2022-09-18T12:44:10.271Z,11.50
2022-09-18T12:46:44.954Z,11.50
2022-09-18T12:49:30.419Z,11.60
2022-09-18T12:52:03.912Z,11.50
2022-09-18T12:54:40.506Z,11.50
2022-09-18T12:57:17.026Z,11.60
2022-09-18T12:59:57.868Z,11.50
2022-09-18T13:02:37.597Z,11.30
2022-09-18T13:05:08.514Z,11.30
2022-09-18T13:07:38.551Z,11.30
2022-09-18T13:10:10.731Z,11.30
2022-09-18T13:12:42.248Z,11.30
2022-09-18T13:15:17.734Z,11.20
2022-09-18T13:17:49.463Z,11.10
2022-09-18T13:20:21.386Z,10.80
2022-09-18T13:22:53.329Z,10.90
2022-09-18T13:25:28.609Z,11.00
2022-09-18T13:27:56.981Z,11.00
2022-09-18T13:30:27.667Z,11.00
2022-09-18T13:32:57.153Z,11.00
2022-09-18T13:35:30.198Z,11.00
2022-09-18T13:38:17.377Z,11.00
2022-09-18T13:40:46.845Z,11.10
2022-09-18T13:43:17.035Z,11.10
2022-09-18T13:45:46.555Z,11.10
2022-09-18T13:48:20.684Z,11.10
2022-09-18T13:50:55.598Z,11.10
2022-09-18T13:53:32.175Z,11.10
2022-09-18T13:56:00.337Z,11.20
2022-09-18T13:59:00.640Z,11.10
2022-09-18T14:01:59.354Z,11.10
2022-09-18T14:05:11.161Z,11.30
2022-09-18T14:07:56.477Z,11.40
2022-09-18T14:10:30.092Z,11.40
2022-09-18T14:13:32.720Z,11.30
2022-09-18T14:16:04.139Z,11.40
2022-09-18T14:18:33.169Z,11.40
2022-09-18T14:21:14.814Z,11.40
2022-09-18T14:24:25.393Z,11.40
2022-09-18T14:27:26.278Z,11.40
2022-09-18T14:29:57.854Z,11.30
2022-09-18T14:32:26.595Z,11.30
2022-09-18T14:35:16.025Z,11.40
2022-09-18T14:37:47.985Z,11.40
2022-09-18T14:40:21.283Z,11.30
2022-09-18T14:42:49.699Z,11.40
2022-09-18T14:45:24.699Z,11.40
2022-09-18T14:47:52.875Z,11.30
2022-09-18T14:50:32.271Z,11.40
2022-09-18T14:53:01.300Z,11.40
2022-09-18T14:55:33.390Z,11.40
2022-09-18T14:58:05.559Z,11.60
2022-09-18T15:00:34.870Z,11.60
2022-09-18T15:03:05.134Z,11.60
2022-09-18T15:05:34.013Z,11.70
2022-09-18T15:08:03.385Z,11.70
2022-09-18T15:10:34.425Z,11.70
2022-09-18T15:13:04.412Z,11.80
2022-09-18T15:15:34.275Z,11.60
2022-09-18T15:18:04.188Z,11.60
2022-09-18T15:20:32.762Z,11.50
2022-09-18T15:23:00.917Z,11.50
2022-09-18T15:25:30.409Z,11.50
2022-09-18T15:28:01.318Z,11.50
2022-09-18T15:30:29.400Z,11.60
2022-09-18T15:32:59.100Z,11.50
2022-09-18T15:35:29.191Z,11.60
2022-09-18T15:38:02.724Z,11.50
2022-09-18T15:40:32.296Z,11.60
2022-09-18T15:43:03.680Z,11.50
2022-09-18T15:45:32.491Z,11.50
2022-09-18T15:48:03.333Z,11.50
2022-09-18T15:50:37.408Z,11.60
2022-09-18T15:53:29.490Z,11.50
2022-09-18T15:56:05.815Z,11.50
2022-09-18T15:58:46.048Z,11.60
2022-09-18T16:01:22.937Z,11.50
2022-09-18T16:03:59.517Z,11.50
2022-09-18T16:06:28.758Z,11.60
2022-09-18T16:08:57.588Z,11.70
2022-09-18T16:11:42.865Z,11.60
2022-09-18T16:14:52.577Z,11.60
2022-09-18T16:17:55.053Z,11.70
2022-09-18T16:20:29.973Z,11.80
2022-09-18T16:23:15.252Z,12.00
2022-09-18T16:25:43.815Z,12.10
2022-09-18T16:28:23.625Z,12.10
2022-09-18T16:30:51.746Z,12.20
2022-09-18T16:33:22.185Z,12.40
2022-09-18T16:35:55.931Z,12.20
2022-09-18T16:38:24.197Z,12.20
2022-09-18T16:40:52.279Z,12.10
2022-09-18T16:43:20.449Z,12.20
2022-09-18T16:45:48.791Z,12.10
2022-09-18T16:48:17.035Z,12.10
2022-09-18T16:50:47.945Z,12.00
2022-09-18T16:53:16.423Z,12.00
2022-09-18T16:55:47.011Z,11.90
2022-09-18T16:58:15.212Z,12.00
2022-09-18T17:00:43.828Z,12.20
2022-09-18T17:03:12.173Z,12.30
2022-09-18T17:05:40.353Z,12.20
2022-09-18T17:08:09.821Z,12.30
2022-09-18T17:10:40.259Z,12.40
2022-09-18T17:13:11.288Z,12.10
2022-09-18T17:15:39.407Z,12.20
2022-09-18T17:18:07.507Z,12.10
2022-09-18T17:20:35.884Z,12.00
2022-09-18T17:23:04.285Z,11.70
2022-09-18T17:25:33.785Z,11.40
2022-09-18T17:28:02.018Z,11.30
2022-09-18T17:30:30.097Z,11.10
2022-09-18T17:32:58.879Z,11.00
2022-09-18T17:35:27.722Z,11.00
2022-09-18T17:37:55.931Z,10.90
2022-09-18T17:40:24.100Z,10.80
2022-09-18T17:42:53.951Z,10.80
2022-09-18T17:45:22.023Z,10.70
2022-09-18T17:47:52.303Z,10.70
2022-09-18T17:50:21.078Z,10.50
2022-09-18T17:52:49.207Z,10.40
2022-09-18T17:55:17.521Z,10.20
2022-09-18T17:57:45.628Z,10.30
2022-09-18T18:00:15.847Z,10.30
2022-09-18T18:02:43.962Z,10.30
2022-09-18T18:05:12.049Z,10.30
2022-09-18T18:07:40.175Z,10.20
2022-09-18T18:10:09.147Z,10.20
2022-09-18T18:12:38.434Z,10.10
2022-09-18T18:15:07.430Z,10.20
2022-09-18T18:17:36.963Z,10.10
2022-09-18T18:20:06.503Z,10.10
2022-09-18T18:22:34.709Z,10.00
2022-09-18T18:25:02.842Z,10.10
2022-09-18T18:27:33.578Z,10.00
2022-09-18T18:30:01.696Z,9.90
2022-09-18T18:32:29.811Z,10.00
2022-09-18T18:34:59.519Z,10.00
2022-09-18T18:37:27.992Z,9.90
2022-09-18T18:39:56.207Z,9.90
2022-09-18T18:42:26.218Z,9.80
2022-09-18T18:44:54.394Z,9.80
2022-09-18T18:47:23.404Z,9.90
2022-09-18T18:49:51.526Z,9.80
2022-09-18T18:52:21.213Z,9.80
2022-09-18T18:54:50.211Z,9.60
2022-09-18T18:57:18.369Z,9.60
2022-09-18T18:59:46.585Z,9.60
2022-09-18T19:02:14.807Z,9.60
2022-09-18T19:04:43.807Z,9.60
2022-09-18T19:07:12.087Z,9.60
2022-09-18T19:09:41.662Z,9.60
2022-09-18T19:12:10.600Z,9.60
2022-09-18T19:14:38.766Z,9.60
2022-09-18T19:17:07.097Z,9.50
2022-09-18T19:19:35.299Z,9.50
2022-09-18T19:22:03.571Z,9.50
2022-09-18T19:24:32.099Z,9.60
2022-09-18T19:27:01.830Z,9.50
2022-09-18T19:29:30.631Z,9.50
2022-09-18T19:32:00.459Z,9.50
2022-09-18T19:34:28.719Z,9.50
2022-09-18T19:36:58.150Z,9.50
2022-09-18T19:39:26.430Z,9.50
2022-09-18T19:41:57.512Z,9.40
2022-09-18T19:44:31.365Z,9.40
2022-09-18T19:47:01.683Z,9.40
2022-09-18T19:49:32.093Z,9.40
2022-09-18T19:52:00.495Z,9.40
2022-09-18T19:54:28.646Z,9.40
2022-09-18T19:56:58.147Z,9.40
2022-09-18T19:59:26.387Z,9.40
2022-09-18T20:01:56.495Z,9.30
2022-09-18T20:04:24.700Z,9.30
2022-09-18T20:06:52.939Z,9.30
2022-09-18T20:09:21.246Z,9.30
2022-09-18T20:11:49.487Z,9.30
2022-09-18T20:14:18.402Z,9.20
2022-09-18T20:16:46.640Z,9.20
2022-09-18T20:19:16.179Z,9.30
2022-09-18T20:21:44.396Z,9.40
2022-09-18T20:24:12.947Z,9.50
2022-09-18T20:26:41.253Z,9.50
2022-09-18T20:29:12.942Z,9.50
2022-09-18T20:31:43.587Z,9.30
2022-09-18T20:34:13.033Z,9.30
2022-09-18T20:36:42.672Z,9.20
2022-09-18T20:39:11.152Z,9.10
2022-09-18T20:41:39.740Z,9.00
2022-09-18T20:44:07.949Z,9.00
2022-09-18T20:46:37.492Z,9.00
2022-09-18T20:49:06.473Z,9.10
2022-09-18T20:51:36.222Z,9.10
2022-09-18T20:54:08.444Z,9.10
2022-09-18T20:56:41.381Z,9.10
2022-09-18T20:59:10.692Z,9.10
2022-09-18T21:01:42.180Z,9.00
2022-09-18T21:04:17.083Z,9.10
2022-09-18T21:06:46.349Z,9.20
2022-09-18T21:09:16.057Z,9.10
2022-09-18T21:11:44.870Z,9.20
2022-09-18T21:14:14.549Z,9.20
2022-09-18T21:16:43.166Z,9.20
2022-09-18T21:19:12.899Z,9.20
2022-09-18T21:21:41.238Z,9.20
2022-09-18T21:24:09.427Z,9.10
2022-09-18T21:26:40.007Z,9.20
2022-09-18T21:29:12.309Z,9.20
2022-09-18T21:31:42.445Z,9.20
2022-09-18T21:34:11.054Z,9.20
2022-09-18T21:36:42.105Z,9.20
2022-09-18T21:39:11.392Z,9.20
2022-09-18T21:41:46.009Z,9.20
2022-09-18T21:44:14.993Z,9.20
2022-09-18T21:46:46.063Z,9.20
2022-09-18T21:49:16.440Z,9.20
2022-09-18T21:51:44.889Z,9.20
2022-09-18T21:54:15.585Z,9.30
2022-09-18T21:56:45.731Z,9.30
2022-09-18T21:59:15.256Z,9.30
2022-09-18T22:01:43.708Z,9.30
2022-09-18T22:04:13.664Z,9.40
2022-09-18T22:06:43.430Z,9.30
2022-09-18T22:09:12.964Z,9.40
2022-09-18T22:11:41.241Z,9.30
2022-09-18T22:14:11.959Z,9.40
2022-09-18T22:16:40.355Z,9.30
2022-09-18T22:19:09.350Z,9.40
2022-09-18T22:21:38.346Z,9.40
2022-09-18T22:24:09.013Z,9.40
2022-09-18T22:26:38.441Z,9.40
2022-09-18T22:29:07.585Z,9.40
2022-09-18T22:31:37.589Z,9.40
2022-09-18T22:34:06.781Z,9.40
2022-09-18T22:36:35.005Z,9.30
2022-09-18T22:39:03.118Z,9.40
2022-09-18T22:41:31.289Z,9.30
2022-09-18T22:43:59.679Z,9.20
2022-09-18T22:46:27.879Z,9.20
2022-09-18T22:48:57.414Z,9.30
2022-09-18T22:51:27.317Z,9.40
2022-09-18T22:53:56.178Z,9.30
2022-09-18T22:56:24.721Z,9.30
2022-09-18T22:58:53.037Z,9.30
2022-09-18T23:01:26.409Z,9.30
2022-09-18T23:03:55.830Z,9.30
2022-09-18T23:06:26.652Z,9.30
2022-09-18T23:08:55.103Z,9.30
2022-09-18T23:11:26.941Z,9.30
2022-09-18T23:13:56.103Z,9.30
2022-09-18T23:16:26.217Z,9.20
2022-09-18T23:18:56.654Z,9.20
2022-09-18T23:21:27.183Z,9.30
2022-09-18T23:23:55.926Z,9.20
2022-09-18T23:26:24.788Z,9.10
2022-09-18T23:28:54.721Z,9.10
2022-09-18T23:31:24.405Z,9.10
2022-09-18T23:33:53.759Z,9.10
2022-09-18T23:36:22.661Z,9.10
2022-09-18T23:38:54.535Z,9.10
2022-09-18T23:41:22.946Z,9.20
2022-09-18T23:43:54.054Z,9.10
2022-09-18T23:46:22.485Z,9.10
2022-09-18T23:48:55.073Z,9.00
2022-09-18T23:51:23.422Z,9.00
2022-09-18T23:53:53.019Z,9.10
2022-09-18T23:56:23.587Z,9.10
2022-09-18T23:58:54.461Z,9.00
